createdAt,value
2018-04-08T00:00:40.440Z,2.7
2018-04-08T00:03:40.470Z,2.7
2018-04-08T00:06:40.705Z,2.7
2018-04-08T00:09:40.446Z,2.7
2018-04-08T00:12:40.394Z,2.7
2018-04-08T00:15:40.456Z,2.7
2018-04-08T00:18:40.444Z,2.7
2018-04-08T00:21:40.434Z,2.7
2018-04-08T00:24:40.424Z,2.7
2018-04-08T00:27:40.439Z,2.7
2018-04-08T00:30:40.422Z,2.7
2018-04-08T00:33:40.409Z,2.7
2018-04-08T00:36:40.403Z,2.7
2018-04-08T00:39:40.420Z,2.7
2018-04-08T00:42:40.434Z,2.7
2018-04-08T00:45:40.434Z,2.7
2018-04-08T00:48:40.455Z,2.7
2018-04-08T00:51:40.434Z,2.7
2018-04-08T00:54:40.427Z,2.7
2018-04-08T00:57:40.447Z,2.7
2018-04-08T01:00:40.456Z,2.5
2018-04-08T01:03:40.432Z,2.5
2018-04-08T01:06:40.451Z,2.5
2018-04-08T01:09:40.407Z,2.5
2018-04-08T01:12:40.428Z,2.5
2018-04-08T01:15:40.400Z,2.5
2018-04-08T01:18:40.410Z,2.5
2018-04-08T01:21:40.415Z,2.5
2018-04-08T01:24:40.437Z,2.5
2018-04-08T01:27:40.410Z,2.5
2018-04-08T01:30:40.433Z,2.5
2018-04-08T01:33:40.384Z,2.5
2018-04-08T01:36:40.414Z,2.5
2018-04-08T01:39:40.403Z,2.5
2018-04-08T01:42:40.405Z,2.5
2018-04-08T01:45:40.398Z,2.5
2018-04-08T01:48:40.386Z,2.5
2018-04-08T01:51:40.398Z,2.5
2018-04-08T01:54:40.382Z,2.5
2018-04-08T01:57:40.446Z,2.5
2018-04-08T02:00:40.369Z,2.4
2018-04-08T02:03:40.406Z,2.4
2018-04-08T02:06:40.388Z,2.4
2018-04-08T02:09:40.403Z,2.4
2018-04-08T02:12:40.406Z,2.4
2018-04-08T02:15:40.427Z,2.4
2018-04-08T02:18:40.405Z,2.4
2018-04-08T02:21:40.438Z,2.4
2018-04-08T02:24:40.458Z,2.4
2018-04-08T02:27:40.390Z,2.4
2018-04-08T02:30:40.408Z,2.4
2018-04-08T02:33:40.353Z,2.4
2018-04-08T02:36:40.488Z,2.4
2018-04-08T02:39:40.501Z,2.4
2018-04-08T02:42:40.366Z,2.4
2018-04-08T02:45:40.374Z,2.4
2018-04-08T02:48:40.427Z,2.4
2018-04-08T02:51:40.383Z,2.4
2018-04-08T02:54:40.432Z,2.4
2018-04-08T02:57:40.489Z,2.4
2018-04-08T03:00:40.440Z,2.4
2018-04-08T03:03:40.415Z,2.4
2018-04-08T03:06:40.404Z,2.4
2018-04-08T03:09:40.425Z,2.4
2018-04-08T03:12:40.368Z,2.4
2018-04-08T03:15:40.398Z,2.4
2018-04-08T03:18:40.373Z,2.4
2018-04-08T03:21:40.398Z,2.4
2018-04-08T03:24:40.370Z,2.4
2018-04-08T03:27:40.373Z,2.4
2018-04-08T03:30:40.442Z,2.4
2018-04-08T03:33:40.354Z,2.4
2018-04-08T03:36:40.380Z,2.4
2018-04-08T03:39:40.326Z,2.4
2018-04-08T03:42:40.381Z,2.4
2018-04-08T03:45:40.338Z,2.4
2018-04-08T03:48:40.379Z,2.4
2018-04-08T03:51:40.337Z,2.4
2018-04-08T03:54:40.374Z,2.4
2018-04-08T03:57:40.366Z,2.4
2018-04-08T04:00:40.378Z,2.4
2018-04-08T04:03:40.357Z,2.4
2018-04-08T04:06:40.355Z,2.4
2018-04-08T04:09:40.341Z,2.4
2018-04-08T04:12:40.380Z,2.4
2018-04-08T04:15:40.373Z,2.4
2018-04-08T04:18:40.363Z,2.4
2018-04-08T04:21:40.333Z,2.4
2018-04-08T04:24:40.337Z,2.4
2018-04-08T04:27:40.381Z,2.4
2018-04-08T04:30:40.359Z,2.4
2018-04-08T04:33:40.341Z,2.4
2018-04-08T04:36:40.459Z,2.4
2018-04-08T04:39:40.358Z,2.4
2018-04-08T04:42:40.409Z,2.4
2018-04-08T04:45:40.837Z,2.4
2018-04-08T04:48:40.336Z,2.4
2018-04-08T04:51:40.417Z,2.4
2018-04-08T04:54:40.343Z,2.4
2018-04-08T04:57:40.316Z,2.4
2018-04-08T05:00:40.401Z,2.3
2018-04-08T05:03:40.820Z,2.3
2018-04-08T05:06:40.340Z,2.3
2018-04-08T05:09:40.375Z,2.3
2018-04-08T05:12:40.348Z,2.3
2018-04-08T05:15:40.376Z,2.3
2018-04-08T05:18:40.330Z,2.3
2018-04-08T05:21:40.342Z,2.3
2018-04-08T05:24:40.337Z,2.3
2018-04-08T05:27:40.344Z,2.3
2018-04-08T05:30:40.366Z,2.3
2018-04-08T05:33:40.351Z,2.3
2018-04-08T05:36:40.308Z,2.3
2018-04-08T05:39:40.349Z,2.3
2018-04-08T05:42:40.320Z,2.3
2018-04-08T05:45:40.335Z,2.3
2018-04-08T05:48:40.363Z,2.3
2018-04-08T05:51:40.339Z,2.3
2018-04-08T05:54:40.287Z,2.3
2018-04-08T05:57:40.294Z,2.3
2018-04-08T06:00:40.335Z,2.2
2018-04-08T06:03:40.356Z,2.2
2018-04-08T06:06:40.354Z,2.2
2018-04-08T06:09:40.318Z,2.2
2018-04-08T06:12:40.316Z,2.2
2018-04-08T06:15:40.639Z,2.2
2018-04-08T06:18:40.301Z,2.2
2018-04-08T06:21:40.364Z,2.2
2018-04-08T06:24:40.324Z,2.2
2018-04-08T06:27:40.328Z,2.2
2018-04-08T06:30:40.372Z,2.2
2018-04-08T06:33:40.410Z,2.2
2018-04-08T06:36:40.323Z,2.2
2018-04-08T06:39:40.306Z,2.2
2018-04-08T06:42:40.319Z,2.2
2018-04-08T06:45:40.331Z,2.2
2018-04-08T06:48:40.326Z,2.2
2018-04-08T06:51:40.328Z,2.2
2018-04-08T06:54:40.323Z,2.2
2018-04-08T06:57:40.349Z,2.2
2018-04-08T07:00:40.355Z,2.2
2018-04-08T07:03:40.349Z,2.2
2018-04-08T07:06:40.304Z,2.2
2018-04-08T07:09:40.293Z,2.2
2018-04-08T07:12:40.331Z,2.2
2018-04-08T07:15:40.285Z,2.2
2018-04-08T07:18:40.314Z,2.2
2018-04-08T07:21:40.392Z,2.2
2018-04-08T07:24:41.405Z,2.2
2018-04-08T07:27:40.339Z,2.2
2018-04-08T07:30:40.360Z,2.2
2018-04-08T07:33:40.301Z,2.2
2018-04-08T07:36:40.373Z,2.2
2018-04-08T07:39:40.300Z,2.2
2018-04-08T07:42:40.311Z,2.2
2018-04-08T07:45:40.242Z,2.2
2018-04-08T07:48:40.280Z,2.2
2018-04-08T07:51:40.294Z,2.2
2018-04-08T07:54:40.332Z,2.2
2018-04-08T07:57:40.274Z,2.2
2018-04-08T08:00:40.290Z,2.3
2018-04-08T08:03:40.178Z,2.3
2018-04-08T08:06:40.293Z,2.3
2018-04-08T08:09:40.300Z,2.3
2018-04-08T08:12:40.305Z,2.3
2018-04-08T08:15:40.315Z,2.3
2018-04-08T08:18:40.317Z,2.3
2018-04-08T08:21:40.267Z,2.3
2018-04-08T08:24:40.289Z,2.3
2018-04-08T08:27:40.302Z,2.3
2018-04-08T08:30:40.348Z,2.3
2018-04-08T08:33:40.316Z,2.3
2018-04-08T08:36:40.283Z,2.3
2018-04-08T08:39:40.379Z,2.3
2018-04-08T08:42:40.397Z,2.3
2018-04-08T08:45:40.262Z,2.3
2018-04-08T08:48:40.296Z,2.3
2018-04-08T08:51:40.327Z,2.3
2018-04-08T08:54:40.261Z,2.3
2018-04-08T08:57:40.261Z,2.3
2018-04-08T09:00:40.276Z,2.5
2018-04-08T09:03:40.276Z,2.5
2018-04-08T09:06:41.403Z,2.5
2018-04-08T09:09:40.258Z,2.5
2018-04-08T09:12:40.259Z,2.5
2018-04-08T09:15:40.283Z,2.5
2018-04-08T09:18:40.308Z,2.5
2018-04-08T09:21:40.368Z,2.5
2018-04-08T09:24:40.301Z,2.5
2018-04-08T09:27:40.256Z,2.5
2018-04-08T09:30:40.321Z,2.5
2018-04-08T09:33:40.261Z,2.5
2018-04-08T09:36:40.264Z,2.5
2018-04-08T09:39:40.280Z,2.5
2018-04-08T09:42:40.288Z,2.5
2018-04-08T09:45:40.926Z,2.5
2018-04-08T09:48:40.316Z,2.5
2018-04-08T09:51:40.343Z,2.5
2018-04-08T09:54:40.287Z,2.5
2018-04-08T09:57:40.331Z,2.5
2018-04-08T10:00:40.252Z,2.8
2018-04-08T10:03:40.312Z,2.8
2018-04-08T10:06:40.264Z,2.8
2018-04-08T10:09:40.245Z,2.8
2018-04-08T12:00:12.839Z,5.6
2018-04-08T12:03:12.643Z,5.6
2018-04-08T12:06:12.793Z,5.6
2018-04-08T12:09:12.841Z,5.6
2018-04-08T12:12:12.947Z,5.6
2018-04-08T12:15:12.651Z,5.6
2018-04-08T12:18:12.614Z,5.6
2018-04-08T12:21:12.618Z,5.6
2018-04-08T12:24:12.731Z,5.6
2018-04-08T12:27:12.823Z,5.6
2018-04-08T12:30:12.697Z,5.6
2018-04-08T12:33:12.579Z,5.6
2018-04-08T12:36:12.605Z,5.6
2018-04-08T12:39:12.634Z,5.6
2018-04-08T12:42:12.734Z,5.6
2018-04-08T12:45:12.919Z,5.6
2018-04-08T12:48:12.605Z,5.6
2018-04-08T12:51:12.660Z,5.6
2018-04-08T12:54:12.670Z,5.6
2018-04-08T12:57:12.625Z,5.6
2018-04-08T13:00:12.619Z,4.8
2018-04-08T13:03:12.748Z,4.8
2018-04-08T13:06:12.581Z,4.8
2018-04-08T13:09:12.570Z,4.8
2018-04-08T13:12:12.587Z,4.8
2018-04-08T13:15:12.640Z,4.8
2018-04-08T13:18:12.611Z,4.8
2018-04-08T13:21:12.644Z,4.8
2018-04-08T13:24:12.645Z,4.8
2018-04-08T13:27:12.625Z,4.8
2018-04-08T13:30:12.608Z,4.8
2018-04-08T13:33:12.577Z,4.8
2018-04-08T13:36:12.651Z,4.8
2018-04-08T13:39:12.631Z,4.8
2018-04-08T13:42:12.650Z,4.8
2018-04-08T13:45:12.585Z,4.8
2018-04-08T13:48:12.703Z,4.8
2018-04-08T13:51:12.594Z,4.8
2018-04-08T13:54:12.560Z,4.8
2018-04-08T13:57:12.627Z,4.8
2018-04-08T14:00:12.567Z,4.3
2018-04-08T14:03:12.577Z,4.3
2018-04-08T14:06:12.612Z,4.3
2018-04-08T14:09:13.164Z,4.3
2018-04-08T14:12:12.604Z,4.3
2018-04-08T14:15:12.640Z,4.3
2018-04-08T14:18:13.195Z,4.3
2018-04-08T14:21:12.606Z,4.3
2018-04-08T14:24:12.594Z,4.3
2018-04-08T14:27:12.598Z,4.3
2018-04-08T14:30:12.671Z,4.3
2018-04-08T14:33:12.647Z,4.3
2018-04-08T14:36:12.553Z,4.3
2018-04-08T14:39:12.605Z,4.3
2018-04-08T14:42:12.573Z,4.3
2018-04-08T14:45:12.616Z,4.3
2018-04-08T14:48:12.549Z,4.3
2018-04-08T14:51:12.576Z,4.3
2018-04-08T14:54:12.626Z,4.3
2018-04-08T14:57:12.553Z,4.3
2018-04-08T15:00:12.547Z,4
2018-04-08T15:03:12.539Z,4
2018-04-08T15:06:12.596Z,4
2018-04-08T15:09:12.559Z,4
2018-04-08T15:12:12.566Z,4
2018-04-08T15:15:12.553Z,4
2018-04-08T15:18:12.541Z,4
2018-04-08T15:21:12.702Z,4
2018-04-08T15:24:12.574Z,4
2018-04-08T15:27:12.552Z,4
2018-04-08T15:30:12.555Z,4
2018-04-08T15:33:12.553Z,4
2018-04-08T15:36:12.572Z,4
2018-04-08T15:39:12.589Z,4
2018-04-08T15:42:12.591Z,4
2018-04-08T15:45:12.559Z,4
2018-04-08T15:48:12.560Z,4
2018-04-08T15:51:12.587Z,4
2018-04-08T15:54:13.049Z,4
2018-04-08T15:57:12.715Z,4
2018-04-08T16:00:12.567Z,3.8
2018-04-08T16:03:12.559Z,3.8
2018-04-08T16:06:12.514Z,3.8
2018-04-08T16:09:12.781Z,3.8
2018-04-08T16:12:12.537Z,3.8
2018-04-08T16:15:12.597Z,3.8
2018-04-08T16:18:16.158Z,3.8
2018-04-08T16:21:12.595Z,3.8
2018-04-08T16:24:12.570Z,3.8
2018-04-08T16:27:12.572Z,3.8
2018-04-08T16:30:12.567Z,3.8
2018-04-08T16:33:12.627Z,3.8
2018-04-08T16:36:12.762Z,3.8
2018-04-08T16:39:12.732Z,3.8
2018-04-08T16:42:12.654Z,3.8
2018-04-08T16:45:12.763Z,3.8
2018-04-08T16:48:12.637Z,3.8
2018-04-08T16:51:13.168Z,3.8
2018-04-08T16:54:12.611Z,3.8
2018-04-08T16:57:12.691Z,3.8
2018-04-08T17:00:12.591Z,3.6
2018-04-08T17:03:12.750Z,3.6
2018-04-08T17:06:12.625Z,3.6
2018-04-08T17:09:12.642Z,3.6
2018-04-08T17:12:12.625Z,3.6
2018-04-08T17:15:12.690Z,3.6
2018-04-08T17:18:12.605Z,3.6
2018-04-08T17:21:12.644Z,3.6
2018-04-08T17:24:13.149Z,3.6
2018-04-08T17:27:12.640Z,3.6
2018-04-08T17:30:12.651Z,3.6
2018-04-08T17:33:12.710Z,3.6
2018-04-08T17:36:12.699Z,3.6
2018-04-08T17:39:12.649Z,3.6
2018-04-08T17:42:12.589Z,3.6
2018-04-08T17:45:12.600Z,3.6
2018-04-08T17:48:12.600Z,3.6
2018-04-08T17:51:12.630Z,3.6
2018-04-08T17:54:13.185Z,3.6
2018-04-08T17:57:12.680Z,3.6
2018-04-08T18:00:12.606Z,3.5
2018-04-08T18:03:12.611Z,3.5
2018-04-08T18:06:12.562Z,3.5
2018-04-08T18:09:13.135Z,3.5
2018-04-08T18:12:13.220Z,3.5
2018-04-08T18:15:12.573Z,3.5
2018-04-08T18:18:12.785Z,3.5
2018-04-08T18:21:12.624Z,3.5
2018-04-08T18:24:13.093Z,3.5
2018-04-08T18:27:12.569Z,3.5
2018-04-08T18:30:12.775Z,3.5
2018-04-08T18:33:12.633Z,3.5
2018-04-08T18:36:12.660Z,3.5
2018-04-08T18:39:12.587Z,3.5
2018-04-08T18:42:12.540Z,3.5
2018-04-08T18:45:12.856Z,3.5
2018-04-08T18:48:13.299Z,3.5
2018-04-08T18:51:12.772Z,3.5
2018-04-08T18:54:12.604Z,3.5
2018-04-08T18:57:13.162Z,3.5
2018-04-08T19:00:13.141Z,3.3
2018-04-08T19:03:12.737Z,3.3
2018-04-08T19:06:12.584Z,3.3
2018-04-08T20:01:07.383Z,3.7
2018-04-08T20:04:07.528Z,3.7
2018-04-08T20:07:07.379Z,3.7
2018-04-08T20:10:07.374Z,3.7
2018-04-08T20:13:07.402Z,3.7
2018-04-08T20:16:07.381Z,3.7
2018-04-08T20:19:07.381Z,3.7
2018-04-08T20:22:07.393Z,3.7
2018-04-08T20:25:07.397Z,3.7
2018-04-08T20:28:07.379Z,3.7
2018-04-08T20:31:07.407Z,3.7
2018-04-08T20:34:07.810Z,3.7
2018-04-08T20:37:07.374Z,3.7
2018-04-08T20:40:07.398Z,3.7
2018-04-08T20:43:07.496Z,3.7
2018-04-08T20:46:07.354Z,3.7
2018-04-08T20:49:08.681Z,3.7
2018-04-08T20:52:07.651Z,3.7
2018-04-08T20:55:07.486Z,3.7
2018-04-08T20:58:07.434Z,3.7
2018-04-08T21:01:07.356Z,3.2
2018-04-08T21:04:07.775Z,3.2
2018-04-08T21:07:07.356Z,3.2
2018-04-08T21:10:07.342Z,3.2
2018-04-08T21:13:07.371Z,3.2
2018-04-08T21:16:07.870Z,3.2
2018-04-08T21:19:07.380Z,3.2
2018-04-08T21:22:07.577Z,3.2
2018-04-08T21:25:07.748Z,3.2
2018-04-08T21:28:08.095Z,3.2
2018-04-08T21:31:07.322Z,3.2
2018-04-08T21:34:07.389Z,3.2
2018-04-08T21:37:07.367Z,3.2
2018-04-08T21:40:07.401Z,3.2
2018-04-08T21:43:07.368Z,3.2
2018-04-08T21:46:07.356Z,3.2
2018-04-08T21:49:07.418Z,3.2
2018-04-08T21:52:07.359Z,3.2
2018-04-08T21:55:07.357Z,3.2
2018-04-08T21:58:07.378Z,3.2
2018-04-08T22:01:07.337Z,2.9
2018-04-08T22:04:07.369Z,2.9
2018-04-08T22:07:07.380Z,2.9
2018-04-08T22:10:07.389Z,2.9
2018-04-08T22:13:07.419Z,2.9
2018-04-08T22:16:07.322Z,2.9
2018-04-08T22:19:07.365Z,2.9
2018-04-08T22:22:07.328Z,2.9
2018-04-08T22:25:07.347Z,2.9
2018-04-08T22:28:07.318Z,2.9
2018-04-08T22:31:07.356Z,2.9
2018-04-08T22:34:07.331Z,2.9
2018-04-08T22:37:07.313Z,2.9
2018-04-08T22:40:07.319Z,2.9
2018-04-08T22:43:07.310Z,2.9
2018-04-08T22:46:07.397Z,2.9
2018-04-08T22:49:07.382Z,2.9
2018-04-08T22:52:07.354Z,2.9
2018-04-08T22:55:07.356Z,2.9
2018-04-08T22:58:07.399Z,2.9
2018-04-08T23:01:07.304Z,2.7
2018-04-08T23:04:07.300Z,2.7
2018-04-08T23:07:07.339Z,2.7
2018-04-08T23:10:07.320Z,2.7
2018-04-08T23:13:07.591Z,2.7
2018-04-08T23:16:07.381Z,2.7
2018-04-08T23:19:07.313Z,2.7
2018-04-08T23:22:07.338Z,2.7
2018-04-08T23:25:07.300Z,2.7
2018-04-08T23:28:07.293Z,2.7
2018-04-08T23:31:07.314Z,2.7
2018-04-08T23:34:07.326Z,2.7
2018-04-08T23:37:07.280Z,2.7
2018-04-08T23:40:07.345Z,2.7
2018-04-08T23:43:07.314Z,2.7
2018-04-08T23:46:07.464Z,2.7
2018-04-08T23:49:07.421Z,2.7
2018-04-08T23:52:07.322Z,2.7
2018-04-08T23:55:07.407Z,2.7
2018-04-08T23:58:07.316Z,2.7
